This is the latest recevied weather packets stored in our database for station/object OH2NJR. If no packets are shown the sender has not sent any weather packets the latest 10 day(s).
| Time | Temp. | Humidity | Pressure | Rain* | Wind** | Luminosity | Snow |
|---|---|---|---|---|---|---|---|
| 1777842283 | 9.44° C | 83% | 1007.3 hPa | 0 mm | - | - | - |
| 1777841300 | 10° C | 79% | 1007.5 hPa | 0 mm | - | - | - |
| 1777841296 | 10° C | 79% | 1007.5 hPa | 0 mm | - | - | - |
| 1777841293 | 10° C | 79% | 1007.5 hPa | 0 mm | - | - | - |
| 1777840193 | 10° C | 78% | 1007.5 hPa | 0 mm | - | - | - |
| 1777838993 | 10° C | 77% | 1007.6 hPa | 0 mm | - | - | - |
| 1777837885 | 10° C | 78% | 1007.5 hPa | 0 mm | - | - | - |
| 1777837878 | 10° C | 78% | 1007.5 hPa | 0 mm | - | - | - |
| 1777836693 | 10.56° C | 77% | 1007.6 hPa | 0 mm | - | - | - |
| 1777835658 | 10° C | 76% | 1007.6 hPa | 0 mm | - | - | - |
| 1777834608 | 10.56° C | 75% | 1007.5 hPa | 0 mm | - | - | - |
| 1777833528 | 10.56° C | 74% | 1007.6 hPa | 0 mm | - | - | - |
| 1777832543 | 10.56° C | 74% | 1007.4 hPa | 0 mm | - | - | - |
| 1777831418 | 10.56° C | 73% | 1007.4 hPa | 0 mm | - | - | - |
| 1777830268 | 10.56° C | 73% | 1007.5 hPa | 0 mm | - | - | - |
| 1777829153 | 10.56° C | 72% | 1007.4 hPa | 0 mm | - | - | - |
| 1777828161 | 10.56° C | 72% | 1007.4 hPa | 0 mm | - | - | - |
| 1777828158 | 10.56° C | 72% | 1007.4 hPa | 0 mm | - | - | - |
| 1777827063 | 12.22° C | 67% | 1007.6 hPa | 0 mm | - | - | - |
| 1777826018 | 12.22° C | 68% | 1007.6 hPa | 0 mm | - | - | - |
| 1777825062 | 11.11° C | 70% | 1007.6 hPa | 0 mm | - | - | - |
| 1777823908 | 10.56° C | 71% | 1007.6 hPa | 0 mm | - | - | - |
| 1777822750 | 10.56° C | 71% | 1007.7 hPa | 0 mm | - | - | - |
| 1777822743 | 10.56° C | 71% | 1007.7 hPa | 0 mm | - | - | - |
| 1777821658 | 10.56° C | 73% | 1007.8 hPa | 0 mm | - | - | - |
* Rain latest hour (hover to see other rain measurements)
** Current wind speed in m/s (hover to see current wind gust speed)